createdAt,value
2023-03-31T00:00:12.541Z,997.11
2023-03-31T00:01:13.238Z,997.16
2023-03-31T00:02:12.958Z,997.07
2023-03-31T00:03:13.214Z,997.07
2023-03-31T00:04:14.525Z,997.14
2023-03-31T00:05:13.499Z,997.13
2023-03-31T00:06:13.685Z,997.10
2023-03-31T00:07:13.888Z,997.07
2023-03-31T00:08:15.244Z,997.16
2023-03-31T00:09:14.781Z,997.14
2023-03-31T00:10:17.866Z,997.13
2023-03-31T00:11:15.505Z,997.03
2023-03-31T00:12:14.668Z,996.93
2023-03-31T00:13:14.835Z,997.03
2023-03-31T00:14:15.290Z,996.84
2023-03-31T00:15:15.169Z,996.95
2023-03-31T00:16:16.284Z,996.89
2023-03-31T00:17:16.183Z,996.85
2023-03-31T00:18:16.261Z,996.90
2023-03-31T00:19:15.933Z,996.90
2023-03-31T00:20:16.073Z,996.83
2023-03-31T00:21:16.745Z,996.81
2023-03-31T00:22:16.416Z,996.87
2023-03-31T00:23:16.587Z,996.83
2023-03-31T00:24:17.751Z,996.82
2023-03-31T00:25:16.899Z,996.70
2023-03-31T00:26:17.068Z,996.75
2023-03-31T00:27:17.229Z,996.75
2023-03-31T00:28:17.396Z,996.68
2023-03-31T00:29:18.244Z,996.66
2023-03-31T00:30:17.782Z,996.71
2023-03-31T00:31:18.020Z,996.60
2023-03-31T00:32:18.135Z,996.75
2023-03-31T00:33:18.370Z,996.75
2023-03-31T00:34:19.258Z,996.71
2023-03-31T00:35:18.713Z,996.71
2023-03-31T00:36:18.930Z,996.62
2023-03-31T00:37:19.747Z,996.72
2023-03-31T00:38:19.166Z,996.65
2023-03-31T00:39:19.364Z,996.75
2023-03-31T00:40:19.798Z,996.59
2023-03-31T00:41:20.245Z,996.61
2023-03-31T00:42:19.894Z,996.51
2023-03-31T00:43:20.056Z,996.46
2023-03-31T00:44:21.114Z,996.43
2023-03-31T00:45:20.383Z,996.52
2023-03-31T00:46:20.662Z,996.45
2023-03-31T00:47:21.747Z,996.41
2023-03-31T00:48:21.746Z,996.30
2023-03-31T00:49:21.045Z,996.32
2023-03-31T00:50:21.221Z,996.37
2023-03-31T00:51:22.298Z,996.32
2023-03-31T00:52:21.588Z,996.31
2023-03-31T00:53:21.752Z,996.30
2023-03-31T00:54:21.910Z,996.29
2023-03-31T00:55:22.068Z,996.26
2023-03-31T00:56:22.787Z,996.31
2023-03-31T00:57:22.502Z,996.18
2023-03-31T00:58:22.584Z,996.24
2023-03-31T00:59:23.751Z,996.24
2023-03-31T01:00:22.876Z,996.25
2023-03-31T01:01:23.821Z,996.24
2023-03-31T01:02:23.233Z,996.22
2023-03-31T01:03:23.434Z,996.25
2023-03-31T01:04:23.635Z,996.17
2023-03-31T01:05:23.811Z,996.22
2023-03-31T01:06:23.990Z,996.22
2023-03-31T01:07:24.793Z,996.18
2023-03-31T01:08:24.320Z,996.20
2023-03-31T01:09:24.514Z,996.21
2023-03-31T01:10:24.701Z,996.29
2023-03-31T01:11:24.881Z,996.25
2023-03-31T01:12:25.034Z,996.23
2023-03-31T01:13:25.218Z,996.16
2023-03-31T01:14:26.759Z,996.16
2023-03-31T01:15:26.294Z,996.18
2023-03-31T01:16:26.708Z,996.07
2023-03-31T01:17:26.147Z,996.12
2023-03-31T01:18:26.283Z,996.09
2023-03-31T01:19:26.369Z,996.14
2023-03-31T01:20:26.529Z,996.05
2023-03-31T01:21:26.698Z,996.04
2023-03-31T01:22:26.910Z,996.01
2023-03-31T01:23:27.764Z,996.04
2023-03-31T01:24:27.795Z,996.01
2023-03-31T01:25:28.265Z,996.00
2023-03-31T01:26:27.677Z,995.92
2023-03-31T01:27:27.869Z,995.98
2023-03-31T01:28:28.059Z,995.93
2023-03-31T01:29:29.233Z,995.92
2023-03-31T01:30:28.379Z,995.98
2023-03-31T01:31:28.618Z,995.97
2023-03-31T01:32:28.750Z,995.90
2023-03-31T01:33:28.864Z,995.86
2023-03-31T01:34:30.629Z,995.95
2023-03-31T01:35:29.302Z,995.87
2023-03-31T01:36:30.263Z,995.84
2023-03-31T01:37:29.560Z,995.82
2023-03-31T01:38:31.265Z,995.79
2023-03-31T01:39:29.891Z,995.81
2023-03-31T01:40:31.070Z,995.86
2023-03-31T01:41:30.223Z,995.75
2023-03-31T01:42:30.393Z,995.82
2023-03-31T01:43:30.544Z,995.74
2023-03-31T01:44:30.699Z,995.77
2023-03-31T01:45:30.882Z,995.64
2023-03-31T01:46:31.080Z,995.63
2023-03-31T01:47:31.795Z,995.65
2023-03-31T01:48:32.300Z,995.58
2023-03-31T01:49:31.583Z,995.54
2023-03-31T01:50:31.742Z,995.59
2023-03-31T01:51:31.922Z,995.56
2023-03-31T01:52:32.082Z,995.57
2023-03-31T01:53:32.257Z,995.55
2023-03-31T01:54:32.450Z,995.52
2023-03-31T01:55:32.629Z,995.51
2023-03-31T01:56:33.786Z,995.59
2023-03-31T01:57:34.787Z,995.57
2023-03-31T01:58:33.804Z,995.49
2023-03-31T01:59:34.308Z,995.47
2023-03-31T02:00:33.687Z,995.40
2023-03-31T02:01:35.602Z,995.36
2023-03-31T02:02:34.360Z,995.41
2023-03-31T02:03:34.422Z,995.35
2023-03-31T02:04:34.397Z,995.41
2023-03-31T02:05:34.563Z,995.40
2023-03-31T02:06:34.727Z,995.38
2023-03-31T02:07:34.930Z,995.47
2023-03-31T02:08:35.128Z,995.35
2023-03-31T02:09:35.303Z,995.28
2023-03-31T02:10:35.467Z,995.27
2023-03-31T02:11:35.635Z,995.29
2023-03-31T02:12:35.791Z,995.24
2023-03-31T02:13:37.285Z,995.21
2023-03-31T02:14:36.169Z,995.21
2023-03-31T02:15:36.334Z,995.13
2023-03-31T02:16:36.520Z,995.16
2023-03-31T02:17:36.693Z,995.07
2023-03-31T02:18:36.781Z,995.06
2023-03-31T02:19:36.969Z,995.03
2023-03-31T02:20:37.171Z,995.04
2023-03-31T02:21:37.341Z,995.01
2023-03-31T02:22:37.539Z,995.01
2023-03-31T02:23:37.831Z,994.96
2023-03-31T02:24:37.858Z,994.92
2023-03-31T02:25:39.722Z,994.96
2023-03-31T02:26:38.221Z,994.89
2023-03-31T02:27:38.376Z,994.92
2023-03-31T02:28:38.573Z,994.93
2023-03-31T02:29:38.763Z,994.83
2023-03-31T02:30:38.947Z,994.80
2023-03-31T02:31:40.808Z,994.92
2023-03-31T02:32:39.334Z,994.83
2023-03-31T02:33:39.532Z,994.91
2023-03-31T02:34:39.699Z,994.86
2023-03-31T02:35:40.366Z,994.89
2023-03-31T02:36:40.782Z,994.89
2023-03-31T02:37:40.176Z,994.80
2023-03-31T02:38:40.323Z,994.77
2023-03-31T02:39:43.275Z,994.75
2023-03-31T02:40:40.679Z,994.71
2023-03-31T02:41:40.897Z,994.72
2023-03-31T02:42:41.332Z,994.72
2023-03-31T02:43:41.224Z,994.70
2023-03-31T02:44:41.414Z,994.73
2023-03-31T02:45:42.894Z,994.69
2023-03-31T02:46:41.716Z,994.67
2023-03-31T02:47:41.975Z,994.64
2023-03-31T02:48:42.036Z,994.62
2023-03-31T02:49:43.819Z,994.53
2023-03-31T02:50:42.310Z,994.48
2023-03-31T02:51:42.457Z,994.48
2023-03-31T02:52:42.632Z,994.39
2023-03-31T02:53:43.780Z,994.37
2023-03-31T02:54:42.929Z,994.41
2023-03-31T02:55:43.083Z,994.33
2023-03-31T02:56:43.361Z,994.30
2023-03-31T02:57:43.482Z,994.26
2023-03-31T02:58:43.675Z,994.31
2023-03-31T02:59:43.846Z,994.24
2023-03-31T03:00:44.041Z,994.27
2023-03-31T03:01:44.913Z,994.20
2023-03-31T03:02:44.597Z,994.20
2023-03-31T03:03:44.663Z,994.14
2023-03-31T03:04:45.790Z,994.08
2023-03-31T03:05:45.943Z,994.10
2023-03-31T03:06:45.275Z,994.06
2023-03-31T03:07:45.484Z,993.93
2023-03-31T03:08:46.786Z,993.90
2023-03-31T03:09:45.804Z,993.92
2023-03-31T03:10:45.964Z,993.89
2023-03-31T03:11:46.152Z,993.82
2023-03-31T03:12:46.344Z,993.82
2023-03-31T03:13:46.538Z,993.77
2023-03-31T03:14:46.732Z,993.70
2023-03-31T03:15:48.782Z,993.67
2023-03-31T03:16:47.048Z,993.68
2023-03-31T03:17:47.310Z,993.48
2023-03-31T03:18:48.289Z,993.49
2023-03-31T03:19:48.165Z,993.49
2023-03-31T03:20:47.836Z,993.46
2023-03-31T03:21:47.995Z,993.41
2023-03-31T03:22:48.147Z,993.35
2023-03-31T03:23:48.314Z,993.35
2023-03-31T03:24:48.863Z,993.32
2023-03-31T03:25:48.745Z,993.24
2023-03-31T03:26:48.904Z,993.27
2023-03-31T03:27:49.843Z,993.21
2023-03-31T03:28:49.213Z,993.23
2023-03-31T03:29:49.858Z,993.12
2023-03-31T03:30:49.665Z,993.19
2023-03-31T03:31:50.799Z,993.23
2023-03-31T03:32:50.080Z,993.23
2023-03-31T03:33:50.241Z,993.29
2023-03-31T03:34:50.400Z,993.21
2023-03-31T03:35:50.611Z,993.26
2023-03-31T03:36:51.339Z,993.25
2023-03-31T03:37:51.002Z,993.17
2023-03-31T03:38:51.213Z,993.14
2023-03-31T03:39:51.341Z,993.16
2023-03-31T03:40:51.486Z,993.08
2023-03-31T03:41:51.694Z,993.05
2023-03-31T03:42:51.880Z,992.98
2023-03-31T03:43:52.800Z,993.02
2023-03-31T03:44:52.833Z,992.94
2023-03-31T03:45:52.409Z,993.04
2023-03-31T03:46:52.484Z,992.95
2023-03-31T03:47:52.699Z,992.93
2023-03-31T03:48:54.302Z,992.90
2023-03-31T03:49:53.044Z,992.82
2023-03-31T03:50:53.182Z,992.74
2023-03-31T03:51:53.336Z,992.80
2023-03-31T03:52:53.490Z,992.70
2023-03-31T03:53:53.632Z,992.74
2023-03-31T03:54:53.784Z,992.67
2023-03-31T03:55:53.953Z,992.68
2023-03-31T03:56:54.836Z,992.61
2023-03-31T03:57:54.262Z,992.58
2023-03-31T03:58:55.297Z,992.60
2023-03-31T03:59:54.545Z,992.58
2023-03-31T04:00:54.701Z,992.48
2023-03-31T04:01:54.906Z,992.47
2023-03-31T04:02:55.148Z,992.39
2023-03-31T04:03:55.207Z,992.35
2023-03-31T04:04:55.360Z,992.41
2023-03-31T04:05:56.303Z,992.47
2023-03-31T04:06:56.356Z,992.41
2023-03-31T04:07:55.859Z,992.42
2023-03-31T04:08:56.092Z,992.41
2023-03-31T04:09:56.227Z,992.52
2023-03-31T04:10:57.804Z,992.53
2023-03-31T04:11:56.540Z,992.49
2023-03-31T04:12:57.298Z,992.52
2023-03-31T04:13:57.337Z,992.51
2023-03-31T04:14:56.962Z,992.49
2023-03-31T04:15:57.149Z,992.40
2023-03-31T04:16:58.298Z,992.38
2023-03-31T04:17:57.614Z,992.23
2023-03-31T04:18:57.686Z,992.14
2023-03-31T04:19:57.822Z,992.02
2023-03-31T04:20:57.971Z,991.98
2023-03-31T04:21:58.147Z,992.01
2023-03-31T04:22:58.301Z,992.11
2023-03-31T04:24:00.316Z,992.11
2023-03-31T04:25:00.305Z,992.07
2023-03-31T04:25:58.811Z,992.08
2023-03-31T04:26:59.015Z,992.04
2023-03-31T04:27:59.206Z,992.08
2023-03-31T04:28:59.361Z,991.99
2023-03-31T04:30:00.345Z,992.00
2023-03-31T04:31:00.302Z,991.92
2023-03-31T04:32:01.855Z,991.90
2023-03-31T04:33:00.197Z,991.87
2023-03-31T04:34:00.302Z,991.86
2023-03-31T04:35:00.458Z,991.93
2023-03-31T04:36:00.667Z,991.91
2023-03-31T04:37:00.807Z,991.85
2023-03-31T04:38:00.954Z,991.86
2023-03-31T04:39:01.120Z,991.81
2023-03-31T04:40:01.352Z,991.80
2023-03-31T04:41:01.869Z,991.73
2023-03-31T04:42:01.623Z,991.77
2023-03-31T04:43:01.779Z,991.82
2023-03-31T04:44:01.933Z,991.84
2023-03-31T04:45:02.846Z,991.87
2023-03-31T04:46:02.276Z,991.85
2023-03-31T04:47:02.489Z,991.80
2023-03-31T04:48:04.241Z,991.77
2023-03-31T04:49:03.847Z,991.78
2023-03-31T04:50:04.316Z,991.71
2023-03-31T04:51:03.360Z,991.72
2023-03-31T04:52:03.497Z,991.66
2023-03-31T04:53:04.345Z,991.63
2023-03-31T04:54:03.861Z,991.65
2023-03-31T04:55:04.016Z,991.65
2023-03-31T04:56:04.492Z,991.64
2023-03-31T04:57:04.366Z,991.46
2023-03-31T04:58:04.569Z,991.52
2023-03-31T04:59:04.754Z,991.60
2023-03-31T05:00:04.952Z,991.47
2023-03-31T05:01:05.200Z,991.48
2023-03-31T05:02:05.339Z,991.55
2023-03-31T05:03:05.541Z,991.64
2023-03-31T05:04:05.620Z,991.66
2023-03-31T05:05:07.313Z,991.54
2023-03-31T05:06:06.956Z,991.53
2023-03-31T05:07:06.382Z,991.63
2023-03-31T05:08:06.306Z,991.51
2023-03-31T05:09:07.341Z,991.54
2023-03-31T05:10:06.623Z,991.57
2023-03-31T05:11:06.812Z,991.61
2023-03-31T05:12:06.982Z,991.45
2023-03-31T05:13:07.692Z,991.46
2023-03-31T05:14:07.401Z,991.42
2023-03-31T05:15:08.329Z,991.49
2023-03-31T05:16:08.059Z,991.52
2023-03-31T05:17:07.970Z,991.55
2023-03-31T05:18:08.326Z,991.50
2023-03-31T05:19:08.822Z,991.45
2023-03-31T05:20:09.363Z,991.50
2023-03-31T05:21:10.323Z,991.36
2023-03-31T05:22:08.800Z,991.37
2023-03-31T05:23:08.960Z,991.33
2023-03-31T05:24:09.869Z,991.32
2023-03-31T05:25:10.822Z,991.32
2023-03-31T05:26:11.329Z,991.32
2023-03-31T05:27:10.326Z,991.22
2023-03-31T05:28:09.970Z,991.23
2023-03-31T05:29:10.141Z,991.13
2023-03-31T05:30:10.394Z,991.08
2023-03-31T05:31:10.537Z,991.13
2023-03-31T05:32:10.716Z,991.08
2023-03-31T05:33:10.848Z,991.05
2023-03-31T05:34:11.002Z,991.07
2023-03-31T05:35:12.335Z,990.93
2023-03-31T05:36:13.355Z,990.99
2023-03-31T05:37:11.466Z,991.00
2023-03-31T05:38:12.325Z,990.91
2023-03-31T05:39:12.390Z,991.00
2023-03-31T05:40:12.034Z,990.78
2023-03-31T05:41:12.184Z,990.77
2023-03-31T05:42:12.332Z,990.75
2023-03-31T05:43:12.486Z,990.77
2023-03-31T05:44:12.641Z,990.72
2023-03-31T05:45:12.879Z,990.65
2023-03-31T05:46:13.845Z,990.57
2023-03-31T05:47:14.207Z,990.63
2023-03-31T05:48:13.482Z,990.61
2023-03-31T05:49:14.329Z,990.64
2023-03-31T05:50:14.904Z,990.56
2023-03-31T05:51:15.067Z,990.51
2023-03-31T05:52:14.394Z,990.55
2023-03-31T05:53:14.436Z,990.47
2023-03-31T05:54:14.610Z,990.50
2023-03-31T05:55:14.765Z,990.47
2023-03-31T05:56:14.929Z,990.46
2023-03-31T05:57:15.135Z,990.47
2023-03-31T05:58:15.305Z,990.36
2023-03-31T05:59:15.434Z,990.42
2023-03-31T06:00:15.614Z,990.46
2023-03-31T06:01:18.190Z,990.38
2023-03-31T06:02:16.443Z,990.38
2023-03-31T06:03:17.375Z,990.22
2023-03-31T06:04:16.293Z,990.23
2023-03-31T06:05:17.373Z,990.15
2023-03-31T06:06:16.583Z,990.21
2023-03-31T06:07:16.662Z,990.19
2023-03-31T06:08:16.844Z,990.23
2023-03-31T06:09:17.025Z,990.11
2023-03-31T06:10:18.866Z,990.06
2023-03-31T06:11:17.411Z,990.00
2023-03-31T06:12:17.880Z,989.94
2023-03-31T06:13:17.824Z,989.93
2023-03-31T06:14:18.015Z,989.98
2023-03-31T06:15:18.191Z,989.88
2023-03-31T06:16:18.446Z,989.81
2023-03-31T06:17:19.359Z,989.71
2023-03-31T06:18:19.848Z,989.87
2023-03-31T06:19:18.865Z,989.92
2023-03-31T06:20:27.757Z,989.84
2023-03-31T06:21:21.175Z,989.86
2023-03-31T06:22:20.024Z,989.87
2023-03-31T06:23:19.569Z,989.88
2023-03-31T06:24:19.734Z,989.85
2023-03-31T06:25:19.934Z,989.76
2023-03-31T06:26:20.796Z,989.83
2023-03-31T06:27:20.357Z,989.80
2023-03-31T06:28:20.552Z,989.85
2023-03-31T06:29:20.821Z,989.88
2023-03-31T06:30:21.879Z,989.86
2023-03-31T06:31:21.195Z,989.84
2023-03-31T06:32:21.333Z,989.88
2023-03-31T06:33:22.377Z,989.78
2023-03-31T06:34:21.770Z,989.86
2023-03-31T06:35:23.860Z,989.82
2023-03-31T06:36:22.014Z,989.77
2023-03-31T06:37:22.851Z,989.73
2023-03-31T06:38:22.416Z,989.70
2023-03-31T06:39:22.613Z,989.70
2023-03-31T06:40:22.823Z,989.66
2023-03-31T06:41:23.853Z,989.71
2023-03-31T06:42:23.904Z,989.62
2023-03-31T06:43:23.453Z,989.56
2023-03-31T06:44:23.624Z,989.51
2023-03-31T06:45:23.818Z,989.41
2023-03-31T06:46:24.067Z,989.57
2023-03-31T06:47:24.166Z,989.42
2023-03-31T06:48:24.848Z,989.46
2023-03-31T06:49:24.546Z,989.37
2023-03-31T06:50:24.749Z,989.33
2023-03-31T06:51:26.846Z,989.33
2023-03-31T06:52:25.844Z,989.30
2023-03-31T06:53:25.254Z,989.26
2023-03-31T06:54:26.472Z,989.33
2023-03-31T06:55:25.663Z,989.37
2023-03-31T06:56:25.875Z,989.30
2023-03-31T06:57:26.062Z,989.34
2023-03-31T06:58:27.718Z,989.32
2023-03-31T06:59:26.487Z,989.33
2023-03-31T07:00:26.733Z,989.20
2023-03-31T07:01:27.915Z,989.26
2023-03-31T07:02:27.975Z,989.31
2023-03-31T07:03:27.298Z,989.20
2023-03-31T07:04:28.398Z,989.29
2023-03-31T07:05:27.621Z,989.24
2023-03-31T07:06:27.776Z,989.37
2023-03-31T07:07:27.948Z,989.34
2023-03-31T07:08:28.125Z,989.37
2023-03-31T07:09:28.858Z,989.29
2023-03-31T07:10:29.405Z,989.25
2023-03-31T07:11:28.637Z,989.25
2023-03-31T07:12:28.784Z,989.22
2023-03-31T07:13:28.974Z,989.34
2023-03-31T07:14:29.867Z,989.23
2023-03-31T07:15:30.716Z,989.24
2023-03-31T07:16:30.590Z,989.23
2023-03-31T07:17:29.620Z,989.18
2023-03-31T07:18:30.144Z,989.24
2023-03-31T07:19:30.906Z,989.26
2023-03-31T07:20:30.865Z,989.15
2023-03-31T07:21:30.390Z,989.20
2023-03-31T07:22:31.218Z,989.21
2023-03-31T07:23:31.362Z,989.26
2023-03-31T07:24:30.884Z,989.36
2023-03-31T07:25:31.050Z,989.26
2023-03-31T07:26:31.213Z,989.27
2023-03-31T07:27:31.387Z,989.28
2023-03-31T07:28:31.553Z,989.27
2023-03-31T07:29:31.752Z,989.22
2023-03-31T07:30:32.854Z,989.29
2023-03-31T07:31:32.921Z,989.25
2023-03-31T07:32:32.463Z,989.30
2023-03-31T07:33:32.570Z,989.31
2023-03-31T07:34:33.962Z,989.40
2023-03-31T07:35:32.900Z,989.29
2023-03-31T07:36:33.726Z,989.35
2023-03-31T07:37:34.857Z,989.29
2023-03-31T07:38:34.301Z,989.38
2023-03-31T07:39:34.595Z,989.29
2023-03-31T07:40:33.778Z,989.30
2023-03-31T07:41:34.918Z,989.29
2023-03-31T07:42:34.098Z,989.33
2023-03-31T07:43:34.875Z,989.29
2023-03-31T07:44:35.384Z,989.36
2023-03-31T07:45:35.417Z,989.27
2023-03-31T07:46:35.442Z,989.32
2023-03-31T07:47:34.980Z,989.32
2023-03-31T07:48:36.302Z,989.35
2023-03-31T07:49:35.330Z,989.35
2023-03-31T07:50:36.360Z,989.35
2023-03-31T07:51:35.746Z,989.27
2023-03-31T07:52:36.852Z,989.35
2023-03-31T07:53:36.167Z,989.38
2023-03-31T07:54:36.371Z,989.29
2023-03-31T07:55:36.564Z,989.28
2023-03-31T07:56:37.407Z,989.22
2023-03-31T07:57:37.907Z,989.26
2023-03-31T07:58:37.864Z,989.23
2023-03-31T07:59:37.269Z,989.28
2023-03-31T08:00:38.375Z,989.30
2023-03-31T08:01:37.706Z,989.26
2023-03-31T08:02:37.983Z,989.32
2023-03-31T08:03:38.028Z,989.22
2023-03-31T08:04:59.914Z,989.24
2023-03-31T08:05:38.916Z,989.21
2023-03-31T08:06:38.415Z,989.13
2023-03-31T08:07:38.563Z,989.17
2023-03-31T08:08:38.726Z,989.25
2023-03-31T08:09:40.367Z,989.15
2023-03-31T08:10:39.123Z,989.17
2023-03-31T08:11:39.913Z,989.07
2023-03-31T08:12:39.426Z,989.03
2023-03-31T08:13:40.351Z,989.00
2023-03-31T08:14:41.515Z,988.92
2023-03-31T08:15:40.950Z,988.83
2023-03-31T08:16:40.188Z,988.83
2023-03-31T08:17:40.874Z,988.79
2023-03-31T08:18:40.427Z,988.82
2023-03-31T08:19:40.580Z,988.74
2023-03-31T08:20:41.378Z,988.69
2023-03-31T08:21:40.889Z,988.58
2023-03-31T08:22:41.078Z,988.58
2023-03-31T08:23:41.735Z,988.50
2023-03-31T08:24:41.867Z,988.41
2023-03-31T08:25:43.892Z,988.34
2023-03-31T08:26:41.620Z,988.40
2023-03-31T08:27:42.401Z,988.34
2023-03-31T08:28:42.907Z,988.35
2023-03-31T08:29:42.213Z,988.36
2023-03-31T08:30:42.359Z,988.27
2023-03-31T08:31:42.528Z,988.23
2023-03-31T08:32:43.365Z,988.23
2023-03-31T08:33:43.867Z,988.25
2023-03-31T08:34:43.870Z,988.11
2023-03-31T08:35:43.325Z,988.10
2023-03-31T08:36:43.400Z,988.10
2023-03-31T08:37:43.547Z,988.12
2023-03-31T08:38:43.711Z,987.98
2023-03-31T08:39:43.848Z,987.99
2023-03-31T08:40:44.950Z,987.96
2023-03-31T08:41:44.234Z,987.87
2023-03-31T08:42:44.925Z,987.92
2023-03-31T08:43:45.411Z,987.56
2023-03-31T08:44:44.682Z,987.42
2023-03-31T08:45:44.909Z,987.45
2023-03-31T08:46:45.034Z,987.26
2023-03-31T08:47:45.210Z,987.22
2023-03-31T08:48:46.864Z,987.06
2023-03-31T08:49:45.615Z,986.81
2023-03-31T08:50:47.445Z,986.74
2023-03-31T08:51:46.431Z,986.51
2023-03-31T08:52:46.077Z,986.40
2023-03-31T08:53:46.274Z,986.30
2023-03-31T08:54:46.476Z,986.24
2023-03-31T08:55:46.653Z,986.14
2023-03-31T08:56:46.899Z,986.01
2023-03-31T08:57:47.874Z,986.15
2023-03-31T08:58:47.161Z,985.97
2023-03-31T08:59:47.343Z,985.92
2023-03-31T09:00:47.537Z,985.86
2023-03-31T09:01:55.333Z,985.87
2023-03-31T09:02:50.797Z,985.83
2023-03-31T09:03:48.028Z,985.86
2023-03-31T09:04:48.113Z,985.90
2023-03-31T09:05:59.269Z,985.81
2023-03-31T09:06:51.446Z,985.81
2023-03-31T09:07:50.377Z,985.83
2023-03-31T09:08:48.879Z,985.77
2023-03-31T09:09:49.076Z,985.81
2023-03-31T09:10:49.939Z,985.85
2023-03-31T09:11:49.459Z,985.80
2023-03-31T09:12:49.638Z,985.86
2023-03-31T09:13:49.806Z,985.83
2023-03-31T09:14:50.440Z,985.86
2023-03-31T09:15:50.097Z,985.91
2023-03-31T09:16:50.285Z,985.95
2023-03-31T09:17:50.491Z,985.87
2023-03-31T09:18:50.674Z,985.71
2023-03-31T09:19:51.381Z,985.47
2023-03-31T09:20:51.073Z,985.23
2023-03-31T09:21:51.258Z,985.27
2023-03-31T09:22:52.324Z,985.17
2023-03-31T09:23:52.571Z,985.07
2023-03-31T09:24:51.828Z,985.00
2023-03-31T09:25:52.020Z,984.91
2023-03-31T09:26:52.208Z,984.96
2023-03-31T09:27:53.387Z,984.99
2023-03-31T09:28:52.527Z,985.11
2023-03-31T09:29:52.728Z,985.26
2023-03-31T09:30:52.905Z,985.21
2023-03-31T09:31:53.120Z,985.25
2023-03-31T09:32:55.921Z,985.42
2023-03-31T09:33:53.552Z,985.43
2023-03-31T09:34:53.741Z,985.45
2023-03-31T09:35:54.925Z,985.60
2023-03-31T09:36:54.123Z,985.65
2023-03-31T09:37:54.508Z,985.74
2023-03-31T09:38:55.425Z,985.68
2023-03-31T09:39:55.395Z,985.72
2023-03-31T09:40:54.818Z,985.83
2023-03-31T09:41:56.923Z,985.86
2023-03-31T09:42:56.391Z,985.83
2023-03-31T09:43:56.396Z,985.89
2023-03-31T09:44:57.395Z,985.96
2023-03-31T09:46:08.520Z,986.07
2023-03-31T09:46:57.970Z,985.97
2023-03-31T09:47:56.996Z,986.06
2023-03-31T09:48:56.940Z,986.04
2023-03-31T09:49:57.400Z,985.95
2023-03-31T09:50:56.682Z,985.86
2023-03-31T09:51:56.834Z,985.86
2023-03-31T09:52:56.960Z,985.77
2023-03-31T09:53:57.124Z,985.53
2023-03-31T09:54:57.265Z,985.20
2023-03-31T09:55:57.423Z,985.00
2023-03-31T09:56:57.621Z,984.81
2023-03-31T09:57:58.899Z,984.66
2023-03-31T09:58:58.902Z,984.50
2023-03-31T09:59:58.024Z,984.40
2023-03-31T10:00:58.185Z,984.22
2023-03-31T10:01:59.065Z,984.18
2023-03-31T10:02:58.485Z,984.06
2023-03-31T10:03:59.420Z,983.93
2023-03-31T10:04:58.804Z,983.82
2023-03-31T10:05:59.771Z,983.66
2023-03-31T10:06:59.136Z,983.57
2023-03-31T10:07:59.945Z,983.46
2023-03-31T10:08:59.466Z,983.28
2023-03-31T10:09:59.596Z,983.36
2023-03-31T10:11:00.399Z,983.26
2023-03-31T10:11:59.946Z,983.12
2023-03-31T10:13:00.148Z,983.20
2023-03-31T10:14:02.413Z,983.18
2023-03-31T10:15:00.903Z,983.00
2023-03-31T10:16:00.584Z,983.10
2023-03-31T10:17:00.955Z,983.19
2023-03-31T10:18:01.948Z,983.13
2023-03-31T10:19:02.348Z,983.24
2023-03-31T10:20:01.338Z,983.24
2023-03-31T10:21:01.961Z,983.23
2023-03-31T10:22:01.755Z,983.29
2023-03-31T10:23:02.769Z,983.37
2023-03-31T10:24:02.154Z,983.34
2023-03-31T10:25:02.324Z,983.43
2023-03-31T10:26:02.540Z,983.51
2023-03-31T10:27:02.617Z,983.63
2023-03-31T10:28:02.777Z,983.67
2023-03-31T10:29:04.936Z,983.96
2023-03-31T10:30:03.155Z,984.00
2023-03-31T10:31:04.103Z,984.07
2023-03-31T10:32:03.554Z,984.12
2023-03-31T10:33:15.217Z,984.24
2023-03-31T10:34:05.915Z,984.31
2023-03-31T10:35:04.069Z,984.23
2023-03-31T10:36:04.239Z,984.31
2023-03-31T10:37:04.475Z,984.22
2023-03-31T10:38:06.070Z,984.18
2023-03-31T10:39:05.757Z,984.08
2023-03-31T10:40:05.010Z,984.01
2023-03-31T10:41:06.092Z,984.05
2023-03-31T10:42:06.414Z,984.09
2023-03-31T10:43:05.541Z,983.91
2023-03-31T10:44:07.911Z,983.86
2023-03-31T10:45:06.408Z,983.80
2023-03-31T10:46:06.100Z,983.82
2023-03-31T10:47:06.330Z,983.80
2023-03-31T10:48:06.478Z,983.80
2023-03-31T10:49:06.652Z,983.81
2023-03-31T10:50:06.777Z,983.79
2023-03-31T10:51:07.084Z,983.81
2023-03-31T10:52:07.102Z,983.76
2023-03-31T10:53:07.957Z,983.77
2023-03-31T10:54:07.473Z,983.74
2023-03-31T10:55:07.618Z,983.75
2023-03-31T10:56:07.761Z,983.75
2023-03-31T10:57:08.476Z,983.75
2023-03-31T10:58:08.908Z,983.74
2023-03-31T10:59:08.322Z,983.76
2023-03-31T11:00:08.469Z,983.67
2023-03-31T11:01:08.661Z,983.72
2023-03-31T11:02:09.420Z,983.76
2023-03-31T11:03:09.984Z,983.81
2023-03-31T11:04:09.178Z,983.84
2023-03-31T11:05:09.951Z,983.88
2023-03-31T11:06:10.409Z,983.83
2023-03-31T11:07:10.449Z,983.92
2023-03-31T11:08:10.480Z,983.91
2023-03-31T11:09:10.026Z,983.89
2023-03-31T11:10:10.239Z,983.87
2023-03-31T11:11:10.409Z,983.91
2023-03-31T11:12:11.276Z,983.98
2023-03-31T11:13:10.790Z,984.15
2023-03-31T11:14:10.976Z,984.41
2023-03-31T11:15:11.147Z,984.52
2023-03-31T11:16:11.532Z,984.54
2023-03-31T11:17:12.448Z,984.68
2023-03-31T11:18:11.717Z,984.71
2023-03-31T11:19:11.872Z,984.88
2023-03-31T11:20:12.041Z,984.98
2023-03-31T11:21:12.383Z,985.08
2023-03-31T11:22:13.411Z,985.08
2023-03-31T11:23:12.535Z,985.12
2023-03-31T11:24:13.914Z,985.06
2023-03-31T11:25:12.911Z,985.18
2023-03-31T11:26:14.914Z,985.27
2023-03-31T11:27:13.466Z,985.31
2023-03-31T11:28:13.374Z,985.45
2023-03-31T11:29:13.592Z,985.46
2023-03-31T11:30:14.418Z,985.42
2023-03-31T11:31:13.930Z,985.34
2023-03-31T11:32:14.527Z,985.09
2023-03-31T11:33:14.520Z,984.99
2023-03-31T11:34:14.364Z,984.85
2023-03-31T11:35:14.570Z,984.65
2023-03-31T11:36:15.454Z,984.52
2023-03-31T11:37:14.892Z,984.31
2023-03-31T11:38:15.094Z,984.24
2023-03-31T11:39:15.279Z,984.09
2023-03-31T11:40:15.445Z,983.92
2023-03-31T11:41:15.718Z,983.79
2023-03-31T11:42:16.345Z,983.66
2023-03-31T11:43:16.921Z,983.66
2023-03-31T11:44:16.089Z,983.62
2023-03-31T11:45:17.423Z,983.53
2023-03-31T11:46:17.048Z,983.49
2023-03-31T11:47:16.576Z,983.55
2023-03-31T11:48:16.791Z,983.51
2023-03-31T11:49:16.995Z,983.50
2023-03-31T11:50:17.200Z,983.45
2023-03-31T11:51:18.926Z,983.49
2023-03-31T11:52:18.418Z,983.71
2023-03-31T11:53:19.291Z,984.30
2023-03-31T11:54:17.925Z,984.67
2023-03-31T11:55:18.121Z,985.04
2023-03-31T11:56:18.284Z,985.24
2023-03-31T11:57:18.507Z,985.42
2023-03-31T11:58:18.574Z,985.40
2023-03-31T11:59:18.745Z,985.61
2023-03-31T12:00:18.932Z,985.76
2023-03-31T12:01:19.113Z,985.80
2023-03-31T12:02:19.489Z,986.06
2023-03-31T12:03:19.516Z,986.03
2023-03-31T12:04:20.426Z,986.38
2023-03-31T12:05:19.840Z,986.23
2023-03-31T12:06:20.111Z,986.22
2023-03-31T12:07:20.795Z,986.42
2023-03-31T12:08:20.974Z,986.49
2023-03-31T12:09:20.507Z,986.62
2023-03-31T12:10:20.671Z,986.61
2023-03-31T12:11:20.939Z,986.64
2023-03-31T12:12:21.941Z,986.81
2023-03-31T12:13:21.210Z,986.91
2023-03-31T12:14:21.391Z,986.94
2023-03-31T12:15:21.559Z,986.96
2023-03-31T12:16:21.769Z,986.99
2023-03-31T12:17:23.038Z,987.06
2023-03-31T12:18:22.188Z,987.02
2023-03-31T12:19:22.352Z,986.98
2023-03-31T12:20:23.474Z,987.00
2023-03-31T12:21:23.476Z,987.02
2023-03-31T12:22:22.959Z,987.07
2023-03-31T12:23:23.800Z,987.03
2023-03-31T12:24:23.301Z,986.96
2023-03-31T12:25:23.995Z,986.86
2023-03-31T12:26:24.476Z,987.01
2023-03-31T12:27:25.434Z,986.93
2023-03-31T12:28:23.918Z,986.80
2023-03-31T12:29:24.976Z,986.86
2023-03-31T12:30:24.232Z,986.80